createdAt,value
2023-05-10T00:00:18.281Z,2.95
2023-05-10T00:02:45.364Z,2.38
2023-05-10T00:05:12.048Z,2.75
2023-05-10T00:07:38.613Z,2.70
2023-05-10T00:10:05.679Z,2.58
2023-05-10T00:12:32.311Z,3.10
2023-05-10T00:14:58.865Z,2.80
2023-05-10T00:17:25.576Z,2.97
2023-05-10T00:19:52.231Z,2.70
2023-05-10T00:22:18.807Z,3.17
2023-05-10T00:24:45.458Z,2.92
2023-05-10T00:27:12.051Z,3.15
2023-05-10T00:29:38.945Z,3.03
2023-05-10T00:32:05.839Z,3.25
2023-05-10T00:34:32.581Z,3.03
2023-05-10T00:36:59.167Z,3.20
2023-05-10T00:39:27.367Z,2.92
2023-05-10T00:41:53.910Z,3.10
2023-05-10T00:44:20.438Z,3.33
2023-05-10T00:46:48.222Z,2.53
2023-05-10T00:49:14.987Z,2.63
2023-05-10T00:51:43.716Z,3.80
2023-05-10T00:54:13.278Z,2.75
2023-05-10T00:56:41.314Z,2.50
2023-05-10T00:59:09.427Z,2.95
2023-05-10T01:01:37.368Z,3.22
2023-05-10T01:04:05.232Z,2.90
2023-05-10T01:06:32.006Z,3.25
2023-05-10T01:08:58.632Z,2.90
2023-05-10T01:11:25.464Z,3.22
2023-05-10T01:13:58.512Z,3.10
2023-05-10T01:16:27.771Z,3.22
2023-05-10T01:18:54.466Z,3.00
2023-05-10T01:21:40.022Z,3.00
2023-05-10T01:24:18.885Z,3.08
2023-05-10T01:27:10.029Z,3.13
2023-05-10T01:30:13.578Z,3.05
2023-05-10T01:32:51.477Z,2.90
2023-05-10T01:35:23.211Z,2.90
2023-05-10T01:37:53.082Z,3.03
2023-05-10T01:40:27.223Z,2.80
2023-05-10T01:43:00.774Z,2.92
2023-05-10T01:45:37.331Z,3.30
2023-05-10T01:48:10.494Z,3.08
2023-05-10T01:50:40.618Z,3.17
2023-05-10T01:53:10.579Z,2.75
2023-05-10T01:55:44.633Z,3.10
2023-05-10T01:58:16.151Z,2.95
2023-05-10T02:00:46.507Z,2.95
2023-05-10T02:03:15.105Z,3.28
2023-05-10T02:05:43.689Z,3.33
2023-05-10T02:08:11.262Z,3.00
2023-05-10T02:10:40.267Z,2.92
2023-05-10T02:13:08.933Z,3.45
2023-05-10T02:15:37.893Z,3.20
2023-05-10T02:18:06.667Z,2.75
2023-05-10T02:20:34.197Z,3.08
2023-05-10T02:23:01.938Z,3.17
2023-05-10T02:25:30.865Z,3.00
2023-05-10T02:28:00.565Z,2.63
2023-05-10T02:30:27.784Z,3.08
2023-05-10T02:32:55.097Z,3.22
2023-05-10T02:35:23.268Z,2.97
2023-05-10T02:37:51.422Z,3.47
2023-05-10T02:40:19.391Z,3.25
2023-05-10T02:42:48.342Z,3.30
2023-05-10T02:45:22.915Z,2.67
2023-05-10T02:47:49.703Z,3.38
2023-05-10T02:50:16.986Z,2.92
2023-05-10T02:52:48.090Z,3.10
2023-05-10T02:55:17.089Z,2.80
2023-05-10T02:57:51.744Z,3.10
2023-05-10T03:00:18.732Z,3.42
2023-05-10T03:02:45.398Z,3.40
2023-05-10T03:05:12.049Z,3.05
2023-05-10T03:07:38.888Z,3.22
2023-05-10T03:10:06.727Z,2.90
2023-05-10T03:12:57.732Z,3.00
2023-05-10T03:15:56.718Z,2.85
2023-05-10T03:18:29.092Z,3.53
2023-05-10T03:21:03.408Z,3.25
2023-05-10T03:23:45.289Z,3.33
2023-05-10T03:26:17.171Z,2.58
2023-05-10T03:28:44.380Z,3.00
2023-05-10T03:31:11.566Z,2.78
2023-05-10T03:33:50.391Z,3.40
2023-05-10T03:36:18.718Z,3.75
2023-05-10T03:38:45.571Z,3.38
2023-05-10T03:41:12.207Z,2.92
2023-05-10T03:43:39.417Z,3.13
2023-05-10T03:46:06.539Z,3.20
2023-05-10T03:48:33.810Z,2.75
2023-05-10T03:51:00.391Z,3.45
2023-05-10T03:53:27.810Z,2.97
2023-05-10T03:55:54.350Z,3.05
2023-05-10T03:58:20.939Z,3.13
2023-05-10T04:00:47.631Z,3.13
2023-05-10T04:03:15.949Z,3.55
2023-05-10T04:05:42.568Z,3.67
2023-05-10T04:08:09.262Z,3.20
2023-05-10T04:10:35.853Z,3.25
2023-05-10T04:13:02.494Z,3.35
2023-05-10T04:15:29.489Z,3.17
2023-05-10T04:17:56.338Z,3.45
2023-05-10T04:20:22.993Z,2.97
2023-05-10T04:22:49.536Z,3.67
2023-05-10T04:25:16.095Z,3.40
2023-05-10T04:27:42.855Z,3.10
2023-05-10T04:30:09.818Z,3.03
2023-05-10T04:32:36.532Z,3.08
2023-05-10T04:35:04.554Z,3.05
2023-05-10T04:37:31.278Z,3.45
2023-05-10T04:39:58.908Z,3.30
2023-05-10T04:42:25.503Z,3.50
2023-05-10T04:44:52.997Z,3.30
2023-05-10T04:47:22.720Z,2.70
2023-05-10T04:49:49.364Z,3.10
2023-05-10T04:52:18.276Z,3.08
2023-05-10T04:54:44.825Z,2.88
2023-05-10T04:57:11.445Z,2.97
2023-05-10T04:59:38.532Z,3.20
2023-05-10T05:02:06.030Z,3.45
2023-05-10T05:04:33.015Z,3.25
2023-05-10T05:07:00.451Z,3.40
2023-05-10T05:09:27.040Z,3.78
2023-05-10T05:11:54.158Z,3.55
2023-05-10T05:14:22.013Z,3.25
2023-05-10T05:16:48.591Z,3.60
2023-05-10T05:19:15.156Z,3.40
2023-05-10T05:21:43.244Z,2.92
2023-05-10T05:24:11.091Z,2.80
2023-05-10T05:26:37.824Z,3.55
2023-05-10T05:29:04.574Z,3.33
2023-05-10T05:31:31.660Z,3.15
2023-05-10T05:33:58.260Z,3.38
2023-05-10T05:36:26.238Z,3.22
2023-05-10T05:38:52.902Z,3.65
2023-05-10T05:41:19.426Z,3.42
2023-05-10T05:43:45.997Z,3.40
2023-05-10T05:46:14.658Z,3.67
2023-05-10T05:48:43.733Z,3.40
2023-05-10T05:51:13.914Z,3.35
2023-05-10T05:53:40.494Z,3.65
2023-05-10T05:56:07.276Z,3.30
2023-05-10T05:58:33.942Z,3.13
2023-05-10T06:01:00.544Z,3.47
2023-05-10T06:03:27.208Z,3.78
2023-05-10T06:05:53.754Z,3.33
2023-05-10T06:08:21.248Z,3.40
2023-05-10T06:10:47.884Z,3.22
2023-05-10T06:13:14.726Z,3.35
2023-05-10T06:15:41.591Z,3.60
2023-05-10T06:18:08.202Z,3.60
2023-05-10T06:20:34.866Z,3.45
2023-05-10T06:25:53.117Z,3.33
2023-05-10T06:28:19.727Z,3.03
2023-05-10T06:30:46.303Z,3.35
2023-05-10T06:33:13.005Z,3.55
2023-05-10T06:35:39.791Z,3.40
2023-05-10T06:38:06.397Z,3.50
2023-05-10T06:40:33.769Z,3.60
2023-05-10T06:43:00.507Z,3.03
2023-05-10T06:45:28.909Z,3.42
2023-05-10T06:47:55.498Z,3.05
2023-05-10T06:50:22.188Z,2.92
2023-05-10T06:52:49.532Z,3.33
2023-05-10T06:55:17.483Z,3.35
2023-05-10T06:57:44.228Z,3.30
2023-05-10T07:00:14.278Z,3.38
2023-05-10T07:02:40.951Z,3.78
2023-05-10T07:05:07.867Z,3.25
2023-05-10T07:07:34.512Z,3.20
2023-05-10T07:10:01.351Z,3.47
2023-05-10T07:12:28.519Z,3.47
2023-05-10T07:14:55.094Z,3.30
2023-05-10T07:17:24.719Z,3.40
2023-05-10T07:19:51.423Z,3.90
2023-05-10T07:22:18.100Z,3.22
2023-05-10T07:24:45.159Z,3.20
2023-05-10T07:27:11.685Z,3.42
2023-05-10T07:29:38.350Z,3.42
2023-05-10T07:32:05.310Z,3.20
2023-05-10T07:34:35.283Z,3.17
2023-05-10T07:37:02.412Z,3.33
2023-05-10T07:39:31.366Z,3.45
2023-05-10T07:41:58.095Z,3.15
2023-05-10T07:44:24.745Z,3.95
2023-05-10T07:46:51.550Z,3.58
2023-05-10T07:49:19.392Z,3.50
2023-05-10T07:51:45.953Z,3.47
2023-05-10T07:54:15.618Z,3.25
2023-05-10T07:56:46.516Z,3.38
2023-05-10T07:59:16.842Z,3.42
2023-05-10T08:01:43.946Z,3.38
2023-05-10T08:04:12.985Z,3.88
2023-05-10T08:06:41.090Z,3.38
2023-05-10T08:09:07.856Z,3.42
2023-05-10T08:11:35.132Z,3.33
2023-05-10T08:14:02.013Z,3.72
2023-05-10T08:16:30.331Z,3.70
2023-05-10T08:18:56.959Z,4.20
2023-05-10T08:21:23.588Z,3.90
2023-05-10T08:23:50.559Z,3.50
2023-05-10T08:26:17.131Z,3.67
2023-05-10T08:28:43.698Z,3.45
2023-05-10T08:31:10.287Z,3.83
2023-05-10T08:33:36.927Z,3.28
2023-05-10T08:36:03.566Z,3.47
2023-05-10T08:38:30.194Z,3.67
2023-05-10T08:41:00.398Z,3.58
2023-05-10T08:43:31.470Z,3.50
2023-05-10T08:46:07.381Z,4.03
2023-05-10T08:48:35.334Z,3.50
2023-05-10T08:51:03.690Z,3.40
2023-05-10T08:53:33.884Z,3.60
2023-05-10T08:56:01.898Z,3.92
2023-05-10T08:58:28.801Z,3.80
2023-05-10T09:00:58.121Z,3.83
2023-05-10T09:03:24.760Z,3.67
2023-05-10T09:05:53.340Z,4.47
2023-05-10T09:08:22.997Z,4.30
2023-05-10T09:10:51.778Z,3.97
2023-05-10T09:13:20.706Z,3.60
2023-05-10T09:15:47.997Z,4.90
2023-05-10T09:18:14.883Z,4.18
2023-05-10T09:20:41.984Z,4.00
2023-05-10T09:23:11.132Z,3.60
2023-05-10T09:25:41.316Z,4.20
2023-05-10T09:28:09.665Z,3.80
2023-05-10T09:30:38.669Z,4.10
2023-05-10T09:33:05.413Z,4.53
2023-05-10T09:35:34.320Z,4.38
2023-05-10T09:38:03.856Z,4.30
2023-05-10T09:40:31.303Z,4.38
2023-05-10T09:42:59.011Z,4.15
2023-05-10T09:45:28.985Z,4.32
2023-05-10T09:47:56.373Z,4.78
2023-05-10T09:50:23.783Z,4.35
2023-05-10T09:53:02.422Z,4.35
2023-05-10T09:55:46.718Z,4.65
2023-05-10T09:58:16.381Z,4.43
2023-05-10T10:00:44.649Z,4.60
2023-05-10T10:03:20.806Z,4.82
2023-05-10T10:05:48.555Z,3.85
2023-05-10T10:08:16.588Z,4.15
2023-05-10T10:10:46.930Z,4.90
2023-05-10T10:13:14.814Z,4.70
2023-05-10T10:15:42.965Z,4.90
2023-05-10T10:18:14.517Z,4.90
2023-05-10T10:20:41.579Z,4.35
2023-05-10T10:23:09.149Z,4.82
2023-05-10T10:25:36.289Z,4.38
2023-05-10T10:28:30.701Z,5.20
2023-05-10T10:31:02.425Z,4.78
2023-05-10T10:33:40.913Z,4.82
2023-05-10T10:36:08.523Z,4.95
2023-05-10T10:38:46.924Z,4.70
2023-05-10T10:41:55.564Z,5.55
2023-05-10T10:44:48.428Z,4.90
2023-05-10T10:47:15.309Z,5.13
2023-05-10T10:49:42.341Z,5.30
2023-05-10T10:52:25.197Z,5.22
2023-05-10T10:55:00.768Z,5.40
2023-05-10T10:57:27.838Z,5.13
2023-05-10T11:00:33.711Z,5.60
2023-05-10T11:03:07.872Z,6.28
2023-05-10T11:05:38.645Z,6.38
2023-05-10T11:08:26.788Z,5.82
2023-05-10T11:11:00.264Z,5.47
2023-05-10T11:13:43.359Z,5.45
2023-05-10T11:16:15.769Z,5.28
2023-05-10T11:19:07.760Z,5.28
2023-05-10T11:21:44.850Z,5.18
2023-05-10T11:24:19.447Z,5.30
2023-05-10T11:26:46.351Z,5.10
2023-05-10T11:29:14.704Z,5.18
2023-05-10T11:31:46.350Z,5.63
2023-05-10T11:34:23.293Z,5.82
2023-05-10T11:36:57.718Z,6.80
2023-05-10T11:39:31.533Z,6.25
2023-05-10T11:42:00.630Z,5.72
2023-05-10T11:44:32.632Z,6.32
2023-05-10T11:47:01.218Z,6.10
2023-05-10T11:49:27.959Z,6.28
2023-05-10T11:52:04.064Z,6.22
2023-05-10T11:54:36.258Z,5.93
2023-05-10T11:57:03.035Z,5.55
2023-05-10T11:59:31.419Z,5.75
2023-05-10T12:01:58.263Z,5.68
2023-05-10T12:04:25.571Z,5.80
2023-05-10T12:06:52.259Z,5.70
2023-05-10T12:09:22.962Z,6.18
2023-05-10T12:12:00.086Z,6.28
2023-05-10T12:14:29.024Z,6.25
2023-05-10T12:16:58.206Z,6.38
2023-05-10T12:19:24.767Z,6.50
2023-05-10T12:21:51.400Z,6.80
2023-05-10T12:24:20.841Z,6.63
2023-05-10T12:26:48.982Z,6.78
2023-05-10T12:29:20.314Z,6.15
2023-05-10T12:31:51.761Z,6.38
2023-05-10T12:34:31.758Z,6.32
2023-05-10T12:36:59.125Z,6.45
2023-05-10T12:39:25.860Z,6.05
2023-05-10T12:41:55.329Z,6.78
2023-05-10T12:44:21.865Z,6.53
2023-05-10T12:46:48.700Z,5.85
2023-05-10T12:49:16.719Z,6.28
2023-05-10T12:51:43.576Z,5.80
2023-05-10T12:54:10.142Z,5.38
2023-05-10T12:56:37.933Z,5.88
2023-05-10T12:59:04.648Z,6.20
2023-05-10T13:01:31.278Z,5.45
2023-05-10T13:03:57.910Z,5.70
2023-05-10T13:06:24.528Z,5.25
2023-05-10T13:08:51.185Z,4.93
2023-05-10T13:11:19.627Z,5.55
2023-05-10T13:13:48.062Z,4.25
2023-05-10T13:16:14.753Z,4.75
2023-05-10T13:18:41.381Z,4.85
2023-05-10T13:21:08.499Z,4.07
2023-05-10T13:23:37.720Z,4.57
2023-05-10T13:26:06.715Z,4.60
2023-05-10T13:28:33.332Z,4.88
2023-05-10T13:31:02.496Z,4.68
2023-05-10T13:33:29.091Z,4.55
2023-05-10T13:35:57.378Z,4.90
2023-05-10T13:38:24.003Z,4.45
2023-05-10T13:40:53.498Z,4.43
2023-05-10T13:43:22.458Z,4.50
2023-05-10T13:45:48.976Z,4.28
2023-05-10T13:48:16.424Z,4.00
2023-05-10T13:50:45.443Z,4.22
2023-05-10T13:53:12.021Z,3.88
2023-05-10T13:55:38.556Z,4.07
2023-05-10T13:58:05.250Z,4.38
2023-05-10T14:00:33.745Z,3.90
2023-05-10T14:03:00.430Z,4.07
2023-05-10T14:05:27.552Z,4.50
2023-05-10T14:07:56.291Z,3.85
2023-05-10T14:10:22.897Z,4.45
2023-05-10T14:12:50.317Z,4.35
2023-05-10T14:15:17.481Z,4.32
2023-05-10T14:17:44.320Z,4.65
2023-05-10T14:20:13.738Z,4.45
2023-05-10T14:22:41.374Z,4.22
2023-05-10T14:25:08.488Z,5.40
2023-05-10T14:27:35.100Z,4.82
2023-05-10T14:30:01.797Z,4.97
2023-05-10T14:32:28.805Z,5.18
2023-05-10T14:34:55.566Z,4.80
2023-05-10T14:37:22.136Z,5.07
2023-05-10T14:39:48.708Z,5.68
2023-05-10T14:42:16.755Z,5.32
2023-05-10T14:44:43.275Z,4.40
2023-05-10T14:47:12.311Z,5.35
2023-05-10T14:49:39.015Z,5.45
2023-05-10T14:52:05.547Z,5.30
2023-05-10T14:54:34.290Z,5.97
2023-05-10T14:57:01.531Z,5.20
2023-05-10T14:59:33.284Z,4.50
2023-05-10T15:02:00.610Z,4.93
2023-05-10T15:04:28.687Z,5.30
2023-05-10T15:06:59.920Z,5.50
2023-05-10T15:09:28.414Z,5.30
2023-05-10T15:11:55.723Z,5.38
2023-05-10T15:14:26.113Z,4.35
2023-05-10T15:16:52.664Z,5.25
2023-05-10T15:19:19.287Z,5.03
2023-05-10T15:21:49.794Z,5.00
2023-05-10T15:24:16.586Z,4.70
2023-05-10T15:26:43.190Z,5.03
2023-05-10T15:29:09.786Z,5.20
2023-05-10T15:31:36.638Z,4.03
2023-05-10T15:34:04.579Z,4.40
2023-05-10T15:36:34.798Z,4.60
2023-05-10T15:39:01.526Z,4.60
2023-05-10T15:41:28.803Z,5.97
2023-05-10T15:43:55.397Z,5.45
2023-05-10T15:46:22.747Z,4.18
2023-05-10T15:48:49.409Z,4.57
2023-05-10T15:51:16.390Z,4.22
2023-05-10T15:53:56.407Z,4.57
2023-05-10T15:56:27.286Z,4.45
2023-05-10T15:58:56.079Z,4.53
2023-05-10T16:01:22.798Z,4.25
2023-05-10T16:03:49.374Z,4.57
2023-05-10T16:06:21.442Z,4.53
2023-05-10T16:08:47.998Z,4.47
2023-05-10T16:11:14.609Z,4.63
2023-05-10T16:13:41.222Z,4.78
2023-05-10T16:16:11.285Z,4.53
2023-05-10T16:18:38.179Z,4.72
2023-05-10T16:21:07.518Z,4.10
2023-05-10T16:23:34.106Z,4.93
2023-05-10T16:26:00.727Z,5.45
2023-05-10T16:28:30.288Z,3.53
2023-05-10T16:30:59.025Z,2.63
2023-05-10T16:33:25.605Z,3.08
2023-05-10T16:35:52.193Z,2.60
2023-05-10T16:38:18.782Z,3.10
2023-05-10T16:40:47.594Z,2.97
2023-05-10T16:43:14.194Z,2.80
2023-05-10T16:45:42.081Z,2.20
2023-05-10T16:48:08.644Z,2.50
2023-05-10T16:50:35.221Z,2.10
2023-05-10T16:53:01.779Z,2.33
2023-05-10T16:55:28.346Z,2.58
2023-05-10T16:58:01.137Z,2.80
2023-05-10T17:00:27.746Z,2.92
2023-05-10T17:02:54.775Z,2.53
2023-05-10T17:05:22.401Z,2.78
2023-05-10T17:07:49.322Z,2.30
2023-05-10T17:10:16.568Z,3.35
2023-05-10T17:12:43.381Z,3.28
2023-05-10T17:15:10.497Z,2.92
2023-05-10T17:17:37.520Z,3.15
2023-05-10T17:20:04.926Z,3.33
2023-05-10T17:22:31.575Z,3.03
2023-05-10T17:24:58.168Z,2.65
2023-05-10T17:27:24.784Z,2.53
2023-05-10T17:29:56.696Z,2.00
2023-05-10T17:32:23.577Z,3.08
2023-05-10T17:34:50.360Z,3.13
2023-05-10T17:37:17.205Z,2.95
2023-05-10T17:39:43.738Z,2.92
2023-05-10T17:42:10.330Z,3.10
2023-05-10T17:44:36.934Z,3.50
2023-05-10T17:47:06.887Z,5.10
2023-05-10T17:49:34.417Z,5.07
2023-05-10T17:52:01.085Z,6.10
2023-05-10T17:54:29.575Z,6.18
2023-05-10T17:56:57.982Z,6.18
2023-05-10T17:59:24.697Z,5.32
2023-05-10T18:01:51.316Z,4.95
2023-05-10T18:04:19.810Z,5.75
2023-05-10T18:06:46.406Z,4.32
2023-05-10T18:09:13.050Z,4.90
2023-05-10T18:11:39.756Z,5.55
2023-05-10T18:14:07.551Z,5.18
2023-05-10T18:16:34.179Z,5.07
2023-05-10T18:19:01.265Z,4.53
2023-05-10T18:21:27.954Z,4.70
2023-05-10T18:23:57.386Z,4.57
2023-05-10T18:26:23.950Z,4.38
2023-05-10T18:28:50.552Z,4.25
2023-05-10T18:31:17.129Z,4.63
2023-05-10T18:33:44.754Z,5.20
2023-05-10T18:36:11.670Z,4.70
2023-05-10T18:38:38.404Z,4.43
2023-05-10T18:41:06.300Z,4.10
2023-05-10T18:43:35.767Z,4.30
2023-05-10T18:46:04.462Z,3.85
2023-05-10T18:48:31.034Z,3.67
2023-05-10T18:50:57.618Z,3.97
2023-05-10T18:53:24.230Z,3.33
2023-05-10T18:55:58.650Z,3.25
2023-05-10T18:58:28.848Z,3.10
2023-05-10T19:00:58.648Z,3.10
2023-05-10T19:03:25.555Z,2.95
2023-05-10T19:05:52.134Z,3.22
2023-05-10T19:08:18.724Z,3.40
2023-05-10T19:10:45.866Z,3.30
2023-05-10T19:13:12.829Z,3.20
2023-05-10T19:15:39.447Z,3.25
2023-05-10T19:18:08.375Z,3.22
2023-05-10T19:20:36.572Z,3.67
2023-05-10T19:25:35.661Z,3.33
2023-05-10T19:28:02.231Z,3.65
2023-05-10T19:30:29.660Z,4.15
2023-05-10T19:32:56.945Z,3.90
2023-05-10T19:35:24.025Z,4.32
2023-05-10T19:37:52.421Z,3.97
2023-05-10T19:40:19.557Z,4.82
2023-05-10T19:42:48.782Z,5.03
2023-05-10T19:45:15.930Z,4.95
2023-05-10T19:47:43.037Z,4.30
2023-05-10T19:50:11.787Z,5.15
2023-05-10T19:52:38.382Z,5.45
2023-05-10T19:55:05.719Z,5.00
2023-05-10T19:57:34.412Z,5.10
2023-05-10T20:00:03.111Z,5.53
2023-05-10T20:02:29.818Z,5.22
2023-05-10T20:04:56.417Z,6.20
2023-05-10T20:07:23.027Z,6.35
2023-05-10T20:09:52.026Z,6.30
2023-05-10T20:12:18.605Z,7.15
2023-05-10T20:14:45.147Z,7.07
2023-05-10T20:17:11.884Z,6.53
2023-05-10T20:19:38.462Z,6.95
2023-05-10T20:22:05.390Z,6.85
2023-05-10T20:24:32.036Z,7.20
2023-05-10T20:27:00.816Z,6.90
2023-05-10T20:29:27.428Z,7.72
2023-05-10T20:31:54.305Z,7.22
2023-05-10T20:34:20.888Z,8.02
2023-05-10T20:36:47.435Z,7.00
2023-05-10T20:39:14.815Z,7.57
2023-05-10T20:41:41.849Z,6.57
2023-05-10T20:44:08.378Z,6.45
2023-05-10T20:46:36.913Z,6.35
2023-05-10T20:49:04.121Z,6.88
2023-05-10T20:51:33.054Z,7.72
2023-05-10T20:54:01.680Z,7.15
2023-05-10T20:56:28.280Z,7.93
2023-05-10T20:58:54.809Z,7.32
2023-05-10T21:01:21.534Z,6.97
2023-05-10T21:03:48.291Z,7.38
2023-05-10T21:06:14.888Z,7.47
2023-05-10T21:08:41.401Z,7.35
2023-05-10T21:11:07.982Z,6.80
2023-05-10T21:13:34.520Z,7.85
2023-05-10T21:16:01.277Z,6.30
2023-05-10T21:18:28.029Z,6.45
2023-05-10T21:20:54.698Z,7.07
2023-05-10T21:23:21.281Z,6.95
2023-05-10T21:25:47.850Z,7.13
2023-05-10T21:28:14.452Z,6.30
2023-05-10T21:30:41.016Z,5.90
2023-05-10T21:33:07.605Z,7.03
2023-05-10T21:35:34.594Z,7.15
2023-05-10T21:38:01.166Z,6.32
2023-05-10T21:40:28.888Z,6.70
2023-05-10T21:42:55.692Z,7.18
2023-05-10T21:45:22.406Z,6.40
2023-05-10T21:47:49.224Z,6.47
2023-05-10T21:50:16.510Z,7.43
2023-05-10T21:52:43.416Z,8.20
2023-05-10T21:55:10.294Z,9.13
2023-05-10T21:57:36.936Z,8.75
2023-05-10T22:00:03.862Z,8.32
2023-05-10T22:02:30.585Z,9.02
2023-05-10T22:04:57.446Z,8.45
2023-05-10T22:07:24.164Z,6.72
2023-05-10T22:09:50.715Z,7.85
2023-05-10T22:12:17.309Z,7.95
2023-05-10T22:14:43.852Z,7.68
2023-05-10T22:17:10.637Z,7.40
2023-05-10T22:19:37.247Z,6.78
2023-05-10T22:22:04.015Z,8.57
2023-05-10T22:24:30.903Z,7.82
2023-05-10T22:26:57.449Z,9.40
2023-05-10T22:29:24.187Z,7.88
2023-05-10T22:31:50.877Z,7.53
2023-05-10T22:34:18.676Z,7.50
2023-05-10T22:36:45.579Z,7.63
2023-05-10T22:39:12.170Z,7.90
2023-05-10T22:41:38.770Z,7.85
2023-05-10T22:44:05.372Z,7.80
2023-05-10T22:46:32.452Z,7.95
2023-05-10T22:48:59.658Z,7.97
2023-05-10T22:51:26.469Z,7.95
2023-05-10T22:53:53.104Z,8.07
2023-05-10T22:56:21.671Z,7.68
2023-05-10T22:58:49.183Z,7.78
2023-05-10T23:01:15.937Z,7.03
2023-05-10T23:03:42.887Z,7.95
2023-05-10T23:06:09.719Z,8.38
2023-05-10T23:08:36.297Z,7.47
2023-05-10T23:11:02.901Z,7.32
2023-05-10T23:13:29.479Z,7.28
2023-05-10T23:15:56.189Z,7.65
2023-05-10T23:18:22.974Z,7.20
2023-05-10T23:20:53.912Z,7.93
2023-05-10T23:23:20.588Z,7.15
2023-05-10T23:25:47.142Z,7.13
2023-05-10T23:28:13.763Z,9.38
2023-05-10T23:30:40.355Z,8.27
2023-05-10T23:33:08.265Z,7.95
2023-05-10T23:35:35.041Z,7.43
2023-05-10T23:38:01.978Z,7.55
2023-05-10T23:40:28.549Z,7.88
2023-05-10T23:42:55.122Z,8.45
2023-05-10T23:45:21.721Z,8.15
2023-05-10T23:47:48.307Z,8.07
2023-05-10T23:50:15.154Z,7.88
2023-05-10T23:52:41.836Z,7.30
2023-05-10T23:55:11.627Z,6.85
2023-05-10T23:57:38.236Z,6.43
